»·PEaware :: CGOUP KSEA-KPSP

CGOUP :: KSEA-KPSP

FLIGHT INFORMATION

Flight Status: Arrived
Operator: Unknown
More flights by this operator :: More flights under this callsign
Pilot: Konrad W. (32064)
Aircraft: Cessna 700 Citation Longitude
(C700)
More flights by this aircraft type
Origin: KSEA Seattle-Tacoma Intl
United States
Destination: KPSP Palm Springs Intl
United States
More flights between these airports :: More routes between these airports
Route: +SUMMA2 LKV J5 PINNI OYVEY SIZLR3
File this flight plan on PilotEdge
Remarks:
Altitude:
(Current/Filed)
25,000ft
Speed:
(Current/Filed)
300kts
Departed: 14-Nov-20 03:14 PM
Arrived: 14-Nov-20 05:26 PM
Distance/Time
Traveled:
858nm/2:12
Distance/Time
To Go:
Arrived

Flight Plot

Page will automatically refresh every two minutes.

Flight plan parsing failed; only flown route is shown


Map Options




Map Legend


Flown Route
Filed Route
Departure Airport
Arrival Airport
Navaid (VOR, NDB)
Fix

Horizontal Profiles

Position Reports

Time Latitude Longitude Heading Altitude Ground
Speed
14-Nov-20 14:25 47.454554 -122.303380 1 402ft 0kts
14-Nov-20 14:26 47.454554 -122.303380 1 402ft 0kts
14-Nov-20 14:27 47.454554 -122.303380 1 402ft 0kts
14-Nov-20 14:28 47.454554 -122.303380 1 402ft 0kts
14-Nov-20 14:29 47.454554 -122.303380 1 402ft 0kts
14-Nov-20 14:30 47.454554 -122.303380 1 402ft 0kts
14-Nov-20 14:31 47.454554 -122.303380 1 402ft 0kts
14-Nov-20 14:32 47.454554 -122.303380 1 402ft 0kts
14-Nov-20 14:33 47.454554 -122.303380 1 402ft 0kts
14-Nov-20 14:34 47.454554 -122.303380 1 402ft 0kts
14-Nov-20 14:35 47.454554 -122.303380 1 402ft 0kts
14-Nov-20 14:36 47.454554 -122.303380 1 402ft 0kts
14-Nov-20 14:37 47.454554 -122.303380 1 402ft 0kts
14-Nov-20 14:38 47.454554 -122.303380 1 402ft 0kts
14-Nov-20 14:39 47.454554 -122.303380 1 402ft 0kts
14-Nov-20 14:40 47.454554 -122.303380 1 402ft 0kts
14-Nov-20 14:41 47.454554 -122.303380 1 402ft 0kts
14-Nov-20 14:42 47.454554 -122.303380 1 402ft 0kts
14-Nov-20 14:43 47.454554 -122.303380 1 402ft 0kts
14-Nov-20 14:44 47.454554 -122.303380 1 402ft 0kts
14-Nov-20 14:45 47.454554 -122.303380 1 402ft 0kts
14-Nov-20 14:46 47.454554 -122.303380 1 402ft 0kts
14-Nov-20 14:47 47.454554 -122.303380 1 402ft 0kts
14-Nov-20 14:48 47.454554 -122.303380 1 402ft 0kts
14-Nov-20 14:49 47.454554 -122.303380 1 402ft 0kts
14-Nov-20 14:50 47.454554 -122.303380 1 402ft 0kts
14-Nov-20 14:51 47.454554 -122.303380 1 402ft 0kts
14-Nov-20 14:52 47.454554 -122.303380 1 402ft 0kts
14-Nov-20 14:53 47.454554 -122.303380 1 402ft 0kts
14-Nov-20 14:54 47.454554 -122.303380 1 402ft 0kts
14-Nov-20 14:55 47.454554 -122.303380 1 402ft 0kts
14-Nov-20 14:56 47.454554 -122.303380 1 402ft 0kts
14-Nov-20 14:57 47.454554 -122.303380 1 402ft 0kts
14-Nov-20 14:58 47.454554 -122.303380 1 402ft 0kts
14-Nov-20 14:59 47.454554 -122.303380 1 402ft 0kts
14-Nov-20 15:00 47.454554 -122.303380 1 402ft 0kts
14-Nov-20 15:01 47.454554 -122.303380 1 402ft 0kts
14-Nov-20 15:02 47.454554 -122.303380 1 402ft 0kts
14-Nov-20 15:03 47.454554 -122.303380 1 402ft 0kts
14-Nov-20 15:04 47.454554 -122.303380 1 402ft 0kts
14-Nov-20 15:05 47.454554 -122.303380 1 402ft 0kts
14-Nov-20 15:06 47.454554 -122.303380 1 402ft 0kts
14-Nov-20 15:07 47.454554 -122.303380 1 402ft 0kts
14-Nov-20 15:08 47.454362 -122.303965 184 401ft 11kts
14-Nov-20 15:09 47.456529 -122.304999 0 407ft 22kts
14-Nov-20 15:10 47.463143 -122.305524 320 426ft 13kts
14-Nov-20 15:11 47.463641 -122.306351 307 427ft 0kts
14-Nov-20 15:12 47.463445 -122.307567 209 426ft 16kts
14-Nov-20 15:13 47.425731 -122.307386 180 1018ft 241kts
14-Nov-20 15:14 47.350517 -122.312571 178 2538ft 241kts
14-Nov-20 15:15 47.290713 -122.310404 183 3835ft 213kts
14-Nov-20 15:16 47.231356 -122.291132 161 5916ft 235kts
14-Nov-20 15:17 47.173605 -122.238586 158 7817ft 254kts
14-Nov-20 15:18 47.107391 -122.206534 168 9762ft 259kts
14-Nov-20 15:19 47.037235 -122.174392 171 11700ft 271kts
14-Nov-20 15:20 46.963505 -122.141327 172 13723ft 284kts
14-Nov-20 15:21 46.882352 -122.105545 171 15123ft 363kts
14-Nov-20 15:22 46.785503 -122.062389 172 16732ft 370kts
14-Nov-20 15:23 46.684707 -122.017785 172 18666ft 388kts
14-Nov-20 15:24 46.579031 -121.973763 176 20765ft 400kts
14-Nov-20 15:25 46.468704 -121.930685 175 22783ft 419kts
14-Nov-20 15:26 46.352921 -121.886129 177 24798ft 440kts
14-Nov-20 15:27 46.232825 -121.840116 175 24900ft 452kts
14-Nov-20 15:28 46.111853 -121.794232 174 25122ft 452kts
14-Nov-20 15:29 45.990396 -121.748320 175 25106ft 452kts
14-Nov-20 15:30 45.868940 -121.702694 175 25187ft 454kts
14-Nov-20 15:31 45.747360 -121.657101 176 25047ft 452kts
14-Nov-20 15:32 45.625452 -121.611553 176 25039ft 454kts
14-Nov-20 15:33 45.502770 -121.565889 175 25121ft 456kts
14-Nov-20 15:34 45.379719 -121.520389 174 25157ft 461kts
14-Nov-20 15:35 45.256701 -121.475210 174 25071ft 460kts
14-Nov-20 15:36 45.133599 -121.430074 174 25101ft 458kts
14-Nov-20 15:37 45.010053 -121.384935 174 25160ft 460kts
14-Nov-20 15:38 44.885988 -121.339854 174 25156ft 462kts
14-Nov-20 15:39 44.762098 -121.295043 174 25150ft 462kts
14-Nov-20 15:40 44.637618 -121.250157 174 25240ft 463kts
14-Nov-20 15:41 44.512612 -121.205266 174 25207ft 464kts
14-Nov-20 15:42 44.387548 -121.160614 174 25214ft 466kts
14-Nov-20 15:43 44.262607 -121.116182 173 25222ft 466kts
14-Nov-20 15:44 44.137535 -121.071913 173 25224ft 466kts
14-Nov-20 15:45 44.012352 -121.027793 173 25235ft 467kts
14-Nov-20 15:46 43.886813 -120.983754 173 25255ft 468kts
14-Nov-20 15:47 43.760716 -120.939709 172 25311ft 470kts
14-Nov-20 15:48 43.634635 -120.895902 174 26511ft 476kts
14-Nov-20 15:49 43.504278 -120.850745 175 28221ft 493kts
14-Nov-20 15:50 43.368911 -120.804022 175 29250ft 510kts
14-Nov-20 15:51 43.231560 -120.756888 175 29312ft 511kts
14-Nov-20 15:52 43.093932 -120.709898 175 29360ft 512kts
14-Nov-20 15:53 42.955798 -120.662935 175 29329ft 512kts
14-Nov-20 15:54 42.818241 -120.616378 175 29365ft 512kts
14-Nov-20 15:56 42.680085 -120.569811 175 29345ft 508kts
14-Nov-20 15:57 42.542208 -120.523616 176 29307ft 513kts
14-Nov-20 15:58 42.403770 -120.481605 177 29437ft 514kts
14-Nov-20 15:59 42.264094 -120.439220 178 29407ft 513kts
14-Nov-20 16:00 42.124603 -120.397232 178 29425ft 514kts
14-Nov-20 16:01 41.984976 -120.355521 178 29435ft 515kts
14-Nov-20 16:02 41.845287 -120.314133 178 29449ft 517kts
14-Nov-20 16:03 41.705245 -120.272952 177 29508ft 516kts
14-Nov-20 16:04 41.565203 -120.231975 177 29476ft 516kts
14-Nov-20 16:05 41.425565 -120.191287 177 29432ft 513kts
14-Nov-20 16:06 41.286504 -120.150922 177 29279ft 513kts
14-Nov-20 16:07 41.146631 -120.110442 177 29363ft 515kts
14-Nov-20 16:08 41.006927 -120.070136 176 29438ft 516kts
14-Nov-20 16:09 40.866785 -120.030014 176 29471ft 517kts
14-Nov-20 16:10 40.726418 -119.990019 176 29467ft 516kts
14-Nov-20 16:11 40.586203 -119.950237 176 29460ft 517kts
14-Nov-20 16:12 40.446251 -119.910723 176 29347ft 516kts
14-Nov-20 16:13 40.306525 -119.871366 176 29387ft 515kts
14-Nov-20 16:14 40.166643 -119.832142 176 29382ft 516kts
14-Nov-20 16:14 40.049781 -119.799489 176 29432ft 519kts
14-Nov-20 16:16 39.886001 -119.753931 175 29359ft 516kts
14-Nov-20 16:16 39.769688 -119.721778 176 29340ft 516kts
14-Nov-20 16:17 39.629714 -119.683121 176 29387ft 517kts
14-Nov-20 16:18 39.489704 -119.647079 185 29289ft 506kts
14-Nov-20 16:19 39.350878 -119.628428 182 29343ft 509kts
14-Nov-20 16:20 39.210693 -119.608695 181 29348ft 510kts
14-Nov-20 16:21 39.070696 -119.588938 181 29383ft 510kts
14-Nov-20 16:22 38.930313 -119.569082 181 29397ft 511kts
14-Nov-20 16:23 38.790899 -119.549304 181 29418ft 511kts
14-Nov-20 16:24 38.650540 -119.529318 181 29310ft 509kts
14-Nov-20 16:25 38.510024 -119.509292 181 29300ft 508kts
14-Nov-20 16:26 38.370928 -119.489611 180 29131ft 503kts
14-Nov-20 16:27 38.231249 -119.469860 182 29376ft 506kts
14-Nov-20 16:28 38.091085 -119.450211 181 29423ft 508kts
14-Nov-20 16:29 37.951291 -119.430713 181 29278ft 505kts
14-Nov-20 16:30 37.811701 -119.411182 181 29208ft 509kts
14-Nov-20 16:31 37.672506 -119.391801 182 29337ft 504kts
14-Nov-20 16:32 37.533587 -119.372500 182 29181ft 503kts
14-Nov-20 16:33 37.396160 -119.353637 181 29257ft 499kts
14-Nov-20 16:34 37.259680 -119.334930 181 29061ft 494kts
14-Nov-20 16:35 37.123965 -119.316298 182 29224ft 491kts
14-Nov-20 16:36 36.989612 -119.298021 181 29210ft 487kts
14-Nov-20 16:37 36.855522 -119.279850 182 29210ft 486kts
14-Nov-20 16:38 36.722665 -119.247009 165 29184ft 498kts
14-Nov-20 16:39 36.591475 -119.199990 168 29238ft 495kts
14-Nov-20 16:40 36.460094 -119.153632 169 29205ft 492kts
14-Nov-20 16:41 36.329684 -119.107576 170 29198ft 489kts
14-Nov-20 16:42 36.199754 -119.061873 171 29217ft 487kts
14-Nov-20 16:43 36.070436 -119.016589 171 29190ft 484kts
14-Nov-20 16:44 35.941081 -118.971506 171 29216ft 482kts
14-Nov-20 16:45 35.812641 -118.926169 168 29049ft 485kts
14-Nov-20 16:46 35.689439 -118.902017 175 27531ft 441kts
14-Nov-20 16:47 35.570517 -118.878143 176 26048ft 431kts
14-Nov-20 16:48 35.453682 -118.854646 177 24635ft 425kts
14-Nov-20 16:49 35.344150 -118.800623 146 24268ft 438kts
14-Nov-20 16:50 35.245318 -118.715989 151 24265ft 437kts
14-Nov-20 16:51 35.144826 -118.633159 151 24278ft 438kts
14-Nov-20 16:52 35.043934 -118.550294 150 24246ft 437kts
14-Nov-20 16:53 34.942985 -118.467907 150 24201ft 437kts
14-Nov-20 16:54 34.842396 -118.386215 150 24209ft 437kts
14-Nov-20 16:55 34.748393 -118.293168 129 23791ft 444kts
14-Nov-20 16:56 34.678115 -118.177986 132 22545ft 411kts
14-Nov-20 16:57 34.608903 -118.070378 131 21365ft 404kts
14-Nov-20 16:58 34.551127 -117.956928 109 19809ft 394kts
14-Nov-20 16:59 34.503195 -117.839880 111 18266ft 383kts
14-Nov-20 17:00 34.456724 -117.726685 113 17193ft 373kts
14-Nov-20 17:01 34.411816 -117.616195 113 16288ft 361kts
14-Nov-20 17:02 34.368023 -117.509016 112 15999ft 353kts
14-Nov-20 17:03 34.324498 -117.402945 112 15952ft 354kts
14-Nov-20 17:04 34.278385 -117.298492 118 16032ft 355kts
14-Nov-20 17:05 34.230685 -117.195065 117 16001ft 354kts
14-Nov-20 17:06 34.182635 -117.092128 116 15983ft 352kts
14-Nov-20 17:07 34.134881 -116.990681 116 16038ft 349kts
14-Nov-20 17:08 34.087230 -116.888723 116 15256ft 346kts
14-Nov-20 17:09 34.041926 -116.791528 114 14031ft 317kts
14-Nov-20 17:10 34.013104 -116.694852 104 13033ft 294kts
14-Nov-20 17:11 33.988061 -116.603392 104 11384ft 285kts
14-Nov-20 17:12 33.952048 -116.522305 129 10156ft 276kts
14-Nov-20 17:13 33.899128 -116.462991 134 9012ft 241kts
14-Nov-20 17:14 33.853703 -116.411457 137 8937ft 221kts
14-Nov-20 17:15 33.808234 -116.361458 137 8966ft 223kts
14-Nov-20 17:16 33.762549 -116.311573 137 8967ft 222kts
14-Nov-20 17:17 33.716864 -116.262094 137 8966ft 222kts
14-Nov-20 17:18 33.668946 -116.224416 207 8846ft 197kts
14-Nov-20 17:19 33.673337 -116.274870 311 8438ft 181kts
14-Nov-20 17:20 33.710582 -116.324782 313 6667ft 245kts
14-Nov-20 17:21 33.750937 -116.384635 292 4795ft 143kts
14-Nov-20 17:22 33.762789 -116.430505 292 2776ft 147kts
14-Nov-20 17:23 33.786828 -116.469305 319 1223ft 143kts
14-Nov-20 17:24 33.817848 -116.497095 322 502ft 125kts
14-Nov-20 17:25 33.833234 -116.511246 277 447ft 22kts
14-Nov-20 17:26 33.832896 -116.511892 193 447ft 0kts
14-Nov-20 17:27 33.830750 -116.510774 143 441ft 25kts
14-Nov-20 17:28 33.826190 -116.506724 172 429ft 9kts
14-Nov-20 17:29 33.825645 -116.508430 359 431ft 0kts
14-Nov-20 17:30 33.825645 -116.508430 359 431ft 0kts
14-Nov-20 17:31 33.825645 -116.508430 359 431ft 0kts
14-Nov-20 17:32 33.825645 -116.508430 359 431ft 0kts
14-Nov-20 17:33 33.825645 -116.508430 359 431ft 0kts
14-Nov-20 17:34 33.825645 -116.508430 359 431ft 0kts
14-Nov-20 17:35 33.825645 -116.508430 359 431ft 0kts
14-Nov-20 17:36 33.825645 -116.508430 359 431ft 0kts
14-Nov-20 17:37 33.825645 -116.508430 359 431ft 0kts
14-Nov-20 17:38 33.825645 -116.508430 359 431ft 0kts
14-Nov-20 17:39 33.825645 -116.508430 359 431ft 0kts

Navigation Log

Ident Type
Flight plan parsing failed, navigation log unavailable